createdAt,value
2023-02-03T00:00:18.968Z,14.50
2023-02-03T00:03:07.214Z,12.20
2023-02-03T00:05:37.115Z,14.25
2023-02-03T00:08:07.151Z,13.90
2023-02-03T00:10:36.826Z,14.35
2023-02-03T00:13:04.790Z,11.18
2023-02-03T00:15:32.499Z,15.60
2023-02-03T00:18:00.356Z,15.40
2023-02-03T00:20:28.683Z,13.32
2023-02-03T00:23:07.030Z,14.25
2023-02-03T00:25:35.551Z,15.55
2023-02-03T00:28:04.311Z,16.00
2023-02-03T00:30:34.681Z,15.00
2023-02-03T00:33:03.951Z,14.30
2023-02-03T00:35:31.743Z,13.32
2023-02-03T00:37:59.683Z,14.35
2023-02-03T00:40:27.921Z,14.80
2023-02-03T00:42:56.234Z,18.27
2023-02-03T00:45:24.444Z,17.77
2023-02-03T00:47:52.375Z,16.02
2023-02-03T00:50:20.013Z,14.40
2023-02-03T00:52:47.996Z,12.23
2023-02-03T00:55:15.814Z,19.40
2023-02-03T00:57:43.801Z,14.20
2023-02-03T01:00:12.270Z,21.45
2023-02-03T01:02:40.190Z,16.20
2023-02-03T01:05:08.496Z,15.82
2023-02-03T01:07:36.432Z,19.40
2023-02-03T01:10:06.476Z,16.00
2023-02-03T01:12:34.650Z,20.42
2023-02-03T01:15:02.342Z,17.90
2023-02-03T01:17:30.390Z,15.63
2023-02-03T01:19:58.023Z,15.80
2023-02-03T01:22:26.047Z,15.98
2023-02-03T01:24:53.637Z,13.60
2023-02-03T01:27:21.702Z,14.63
2023-02-03T01:29:49.668Z,11.20
2023-02-03T01:32:17.581Z,15.45
2023-02-03T01:34:45.303Z,13.23
2023-02-03T01:37:14.566Z,18.00
2023-02-03T01:39:42.136Z,11.40
2023-02-03T01:42:14.026Z,14.70
2023-02-03T01:44:43.487Z,12.60
2023-02-03T01:47:33.526Z,13.50
2023-02-03T01:50:04.313Z,17.80
2023-02-03T01:52:33.849Z,11.88
2023-02-03T01:55:05.518Z,9.95
2023-02-03T01:57:39.643Z,7.85
2023-02-03T02:00:09.462Z,11.77
2023-02-03T02:02:46.563Z,9.52
2023-02-03T02:05:27.563Z,10.48
2023-02-03T02:07:58.467Z,9.63
2023-02-03T02:10:26.552Z,11.40
2023-02-03T02:13:00.428Z,9.50
2023-02-03T02:15:51.092Z,12.10
2023-02-03T02:18:49.967Z,9.93
2023-02-03T02:21:23.473Z,10.80
2023-02-03T02:24:10.319Z,11.02
2023-02-03T02:26:49.245Z,12.85
2023-02-03T02:29:27.882Z,9.82
2023-02-03T02:32:10.820Z,9.27
2023-02-03T02:35:04.305Z,11.93
2023-02-03T02:38:15.102Z,11.87
2023-02-03T02:40:54.446Z,9.10
2023-02-03T02:43:28.548Z,8.98
2023-02-03T02:46:06.216Z,10.75
2023-02-03T02:48:46.634Z,10.10
2023-02-03T02:51:16.849Z,12.23
2023-02-03T02:53:52.335Z,8.18
2023-02-03T02:56:22.101Z,8.13
2023-02-03T02:58:51.900Z,7.78
2023-02-03T03:01:20.163Z,8.82
2023-02-03T03:03:48.056Z,8.80
2023-02-03T03:06:21.956Z,7.55
2023-02-03T03:11:33.411Z,6.95
2023-02-03T03:14:04.503Z,7.18
2023-02-03T03:16:37.618Z,8.75
2023-02-03T03:19:15.292Z,6.63
2023-02-03T03:21:57.593Z,8.40
2023-02-03T03:24:31.092Z,8.73
2023-02-03T03:27:14.037Z,5.60
2023-02-03T03:29:54.492Z,8.75
2023-02-03T03:32:23.354Z,5.18
2023-02-03T03:34:52.353Z,8.13
2023-02-03T03:37:22.130Z,5.55
2023-02-03T03:39:59.872Z,12.65
2023-02-03T03:42:38.076Z,7.85
2023-02-03T03:45:22.827Z,6.25
2023-02-03T03:48:01.576Z,6.53
2023-02-03T03:50:34.048Z,7.18
2023-02-03T03:53:04.462Z,6.35
2023-02-03T03:55:35.551Z,7.10
2023-02-03T03:58:21.103Z,7.07
2023-02-03T04:00:49.553Z,7.00
2023-02-03T04:03:28.980Z,8.75
2023-02-03T04:05:56.569Z,8.75
2023-02-03T04:08:24.441Z,5.13
2023-02-03T04:10:52.099Z,11.60
2023-02-03T04:13:20.734Z,5.50
2023-02-03T04:15:48.451Z,7.07
2023-02-03T04:18:17.078Z,10.73
2023-02-03T04:20:44.798Z,9.32
2023-02-03T04:23:12.704Z,6.18
2023-02-03T04:25:40.292Z,6.65
2023-02-03T04:28:08.293Z,7.55
2023-02-03T04:30:36.107Z,8.27
2023-02-03T04:33:04.047Z,6.13
2023-02-03T04:35:31.707Z,10.70
2023-02-03T04:37:59.710Z,7.28
2023-02-03T04:40:27.568Z,7.47
2023-02-03T04:42:55.731Z,8.68
2023-02-03T04:45:23.266Z,6.47
2023-02-03T04:47:54.622Z,9.52
2023-02-03T04:50:22.496Z,8.27
2023-02-03T04:52:51.100Z,6.32
2023-02-03T04:55:18.703Z,9.73
2023-02-03T04:57:46.530Z,8.90
2023-02-03T05:00:14.759Z,6.43
2023-02-03T05:02:42.638Z,7.93
2023-02-03T05:05:10.367Z,8.45
2023-02-03T05:07:38.345Z,12.90
2023-02-03T05:10:06.326Z,11.32
2023-02-03T05:12:34.250Z,12.98
2023-02-03T05:15:02.121Z,10.82
2023-02-03T05:17:30.045Z,9.38
2023-02-03T05:19:57.732Z,15.07
2023-02-03T05:22:25.582Z,11.57
2023-02-03T05:24:53.137Z,12.35
2023-02-03T05:27:21.131Z,13.65
2023-02-03T05:29:48.820Z,11.48
2023-02-03T05:32:16.688Z,12.32
2023-02-03T05:34:44.258Z,13.23
2023-02-03T05:37:12.095Z,11.77
2023-02-03T05:39:39.664Z,15.23
2023-02-03T05:42:07.535Z,11.88
2023-02-03T05:44:35.175Z,15.07
2023-02-03T05:47:03.135Z,12.82
2023-02-03T05:49:30.794Z,14.55
2023-02-03T05:51:58.758Z,18.13
2023-02-03T05:54:26.305Z,15.38
2023-02-03T05:56:54.300Z,16.45
2023-02-03T05:59:21.958Z,18.25
2023-02-03T06:01:49.893Z,17.67
2023-02-03T06:04:17.631Z,17.00
2023-02-03T06:06:47.720Z,17.80
2023-02-03T06:09:15.530Z,17.20
2023-02-03T06:11:43.446Z,19.08
2023-02-03T06:14:11.104Z,19.95
2023-02-03T06:16:38.993Z,19.63
2023-02-03T06:19:06.719Z,17.55
2023-02-03T06:21:34.548Z,16.45
2023-02-03T06:24:02.357Z,17.83
2023-02-03T06:26:30.297Z,17.55
2023-02-03T06:28:57.962Z,18.67
2023-02-03T06:31:26.100Z,18.27
2023-02-03T06:33:54.105Z,18.85
2023-02-03T06:36:22.398Z,17.88
2023-02-03T06:38:50.218Z,17.73
2023-02-03T06:41:18.152Z,18.95
2023-02-03T06:43:45.921Z,17.75
2023-02-03T06:46:13.782Z,18.55
2023-02-03T06:48:41.432Z,17.33
2023-02-03T06:51:09.454Z,16.60
2023-02-03T06:53:37.175Z,17.15
2023-02-03T06:56:05.414Z,18.83
2023-02-03T06:58:33.064Z,16.92
2023-02-03T07:01:01.125Z,18.25
2023-02-03T07:03:28.857Z,17.60
2023-02-03T07:05:57.008Z,16.25
2023-02-03T07:08:24.616Z,16.02
2023-02-03T07:10:56.001Z,17.17
2023-02-03T07:13:23.733Z,18.35
2023-02-03T07:15:52.890Z,17.13
2023-02-03T07:18:45.467Z,19.35
2023-02-03T07:21:13.731Z,16.48
2023-02-03T07:23:41.360Z,19.60
2023-02-03T07:26:11.196Z,17.88
2023-02-03T07:28:38.842Z,19.13
2023-02-03T07:31:10.351Z,20.75
2023-02-03T07:33:39.161Z,18.90
2023-02-03T07:36:08.041Z,16.35
2023-02-03T07:38:35.753Z,20.58
2023-02-03T07:41:04.363Z,19.05
2023-02-03T07:43:32.100Z,16.02
2023-02-03T07:46:01.805Z,20.77
2023-02-03T07:48:29.575Z,16.67
2023-02-03T07:50:57.480Z,16.92
2023-02-03T07:53:25.147Z,16.73
2023-02-03T07:55:53.037Z,18.30
2023-02-03T07:58:21.053Z,13.57
2023-02-03T08:00:48.923Z,11.73
2023-02-03T08:03:16.562Z,11.52
2023-02-03T08:05:44.466Z,12.27
2023-02-03T08:08:12.180Z,13.65
2023-02-03T08:10:40.204Z,13.10
2023-02-03T08:13:08.064Z,12.20
2023-02-03T08:15:36.267Z,11.82
2023-02-03T08:18:04.578Z,8.85
2023-02-03T08:20:32.502Z,14.43
2023-02-03T08:23:00.147Z,11.35
2023-02-03T08:25:28.126Z,12.63
2023-02-03T08:27:55.832Z,12.57
2023-02-03T08:30:24.554Z,11.02
2023-02-03T08:32:56.298Z,9.02
2023-02-03T08:35:24.945Z,8.52
2023-02-03T08:40:15.162Z,6.80
2023-02-03T08:42:43.234Z,7.72
2023-02-03T08:45:11.423Z,7.32
2023-02-03T08:47:39.420Z,9.18
2023-02-03T08:50:09.223Z,7.55
2023-02-03T08:52:37.318Z,7.85
2023-02-03T08:55:05.434Z,8.05
2023-02-03T08:57:37.600Z,8.20
2023-02-03T09:00:06.505Z,5.88
2023-02-03T09:02:34.507Z,7.10
2023-02-03T09:05:02.289Z,6.35
2023-02-03T09:07:30.583Z,10.27
2023-02-03T09:09:58.263Z,7.82
2023-02-03T09:12:26.288Z,9.88
2023-02-03T09:14:54.040Z,8.55
2023-02-03T09:17:22.021Z,7.50
2023-02-03T09:19:49.757Z,8.63
2023-02-03T09:22:17.782Z,6.82
2023-02-03T09:24:45.696Z,8.27
2023-02-03T09:27:13.632Z,8.75
2023-02-03T09:29:41.357Z,8.10
2023-02-03T09:32:10.741Z,8.15
2023-02-03T09:34:41.603Z,9.63
2023-02-03T09:37:09.785Z,7.05
2023-02-03T09:39:37.474Z,9.90
2023-02-03T09:42:56.443Z,7.47
2023-02-03T09:45:28.868Z,9.43
2023-02-03T09:48:10.008Z,8.48
2023-02-03T09:50:40.859Z,10.05
2023-02-03T09:53:35.499Z,6.80
2023-02-03T09:56:03.210Z,8.60
2023-02-03T09:58:34.582Z,6.43
2023-02-03T10:01:06.849Z,4.47
2023-02-03T10:03:51.715Z,6.95
2023-02-03T10:06:43.215Z,6.15
2023-02-03T10:09:40.891Z,9.55
2023-02-03T10:12:34.595Z,5.32
2023-02-03T10:15:40.439Z,9.40
2023-02-03T10:18:16.441Z,5.90
2023-02-03T10:20:52.271Z,4.47
2023-02-03T10:23:24.213Z,3.92
2023-02-03T10:25:57.431Z,4.00
2023-02-03T10:28:31.211Z,4.67
2023-02-03T10:31:02.942Z,9.40
2023-02-03T10:33:32.095Z,3.72
2023-02-03T10:36:21.466Z,3.63
2023-02-03T10:39:15.435Z,6.05
2023-02-03T10:41:43.538Z,6.32
2023-02-03T10:44:15.129Z,4.03
2023-02-03T10:46:45.451Z,2.78
2023-02-03T10:49:16.438Z,3.35
2023-02-03T10:52:02.306Z,3.60
2023-02-03T10:54:34.683Z,3.25
2023-02-03T10:57:06.801Z,2.58
2023-02-03T10:59:45.664Z,3.55
2023-02-03T11:02:29.431Z,3.90
2023-02-03T11:05:33.634Z,3.85
2023-02-03T11:08:01.737Z,4.95
2023-02-03T11:10:35.979Z,3.83
2023-02-03T11:13:09.896Z,3.70
2023-02-03T11:15:38.011Z,3.72
2023-02-03T11:18:05.959Z,5.28
2023-02-03T11:20:37.192Z,3.38
2023-02-03T11:23:06.018Z,3.33
2023-02-03T11:25:33.809Z,2.95
2023-02-03T11:28:07.301Z,4.07
2023-02-03T11:30:35.053Z,4.97
2023-02-03T11:33:03.848Z,3.75
2023-02-03T11:35:33.648Z,4.78
2023-02-03T11:38:02.344Z,3.83
2023-02-03T11:40:32.657Z,4.05
2023-02-03T11:43:14.398Z,4.00
2023-02-03T11:45:54.563Z,5.03
2023-02-03T11:48:30.937Z,2.97
2023-02-03T11:51:17.392Z,5.03
2023-02-03T11:54:05.051Z,5.35
2023-02-03T11:56:50.761Z,3.80
2023-02-03T11:59:50.390Z,4.43
2023-02-03T12:02:42.940Z,3.63
2023-02-03T12:05:22.836Z,5.97
2023-02-03T12:07:59.339Z,4.28
2023-02-03T12:10:46.068Z,4.32
2023-02-03T12:13:36.832Z,4.68
2023-02-03T12:16:19.857Z,2.80
2023-02-03T12:19:02.303Z,3.35
2023-02-03T12:21:33.007Z,4.32
2023-02-03T12:24:25.439Z,3.72
2023-02-03T12:27:03.579Z,3.70
2023-02-03T12:29:38.635Z,5.55
2023-02-03T12:32:25.414Z,3.05
2023-02-03T12:34:59.069Z,2.78
2023-02-03T12:40:12.420Z,5.85
2023-02-03T12:42:53.505Z,6.25
2023-02-03T12:45:36.948Z,5.55
2023-02-03T12:48:11.761Z,6.00
2023-02-03T12:50:41.095Z,4.90
2023-02-03T12:53:35.099Z,6.18
2023-02-03T12:56:16.468Z,7.10
2023-02-03T12:58:54.405Z,4.22
2023-02-03T13:01:23.834Z,6.13
2023-02-03T13:04:16.080Z,7.68
2023-02-03T13:07:13.029Z,4.35
2023-02-03T13:09:49.041Z,8.52
2023-02-03T13:12:30.833Z,6.18
2023-02-03T13:15:20.826Z,5.97
2023-02-03T13:18:04.467Z,3.95
2023-02-03T13:20:36.174Z,5.72
2023-02-03T13:23:12.591Z,8.20
2023-02-03T13:26:03.349Z,9.20
2023-02-03T13:28:59.843Z,6.47
2023-02-03T13:31:39.705Z,8.18
2023-02-03T13:34:19.314Z,8.52
2023-02-03T13:37:06.355Z,6.13
2023-02-03T13:39:52.583Z,7.60
2023-02-03T13:42:33.461Z,8.85
2023-02-03T13:45:17.026Z,5.32
2023-02-03T13:47:54.989Z,6.70
2023-02-03T13:50:29.944Z,5.03
2023-02-03T13:53:07.186Z,4.90
2023-02-03T13:55:39.524Z,7.57
2023-02-03T13:58:22.037Z,7.70
2023-02-03T14:00:52.618Z,5.72
2023-02-03T14:03:26.688Z,7.57
2023-02-03T14:08:26.318Z,5.32
2023-02-03T14:11:35.758Z,5.97
2023-02-03T14:14:09.208Z,7.13
2023-02-03T14:16:41.544Z,6.53
2023-02-03T14:19:33.680Z,10.05
2023-02-03T14:22:17.590Z,8.60
2023-02-03T14:24:47.901Z,5.90
2023-02-03T14:27:25.991Z,7.38
2023-02-03T14:30:08.378Z,8.35
2023-02-03T14:32:54.372Z,6.45
2023-02-03T14:35:35.172Z,9.70
2023-02-03T14:38:10.711Z,11.25
2023-02-03T14:40:56.462Z,9.75
2023-02-03T14:43:30.143Z,7.78
2023-02-03T14:46:00.893Z,10.68
2023-02-03T14:48:46.221Z,10.32
2023-02-03T14:51:16.957Z,10.85
2023-02-03T14:53:53.717Z,11.27
2023-02-03T14:57:05.335Z,14.77
2023-02-03T14:59:56.478Z,13.73
2023-02-03T15:02:27.586Z,16.30
2023-02-03T15:05:13.815Z,16.30
2023-02-03T15:07:48.832Z,14.50
2023-02-03T15:10:19.747Z,17.33
2023-02-03T15:12:52.925Z,16.77
2023-02-03T15:15:29.826Z,18.10
2023-02-03T15:18:19.357Z,21.23
2023-02-03T15:20:53.285Z,10.20
2023-02-03T15:23:30.547Z,13.30
2023-02-03T15:26:01.067Z,12.48
2023-02-03T15:28:30.470Z,13.30
2023-02-03T15:31:22.749Z,14.13
2023-02-03T15:33:52.728Z,14.60
2023-02-03T15:36:34.508Z,18.30
2023-02-03T15:39:24.360Z,18.67
2023-02-03T15:41:54.792Z,13.75
2023-02-03T15:44:45.798Z,19.35
2023-02-03T15:47:41.271Z,28.13
2023-02-03T15:50:20.135Z,19.83
2023-02-03T15:52:51.637Z,23.85
2023-02-03T15:55:36.604Z,24.75
2023-02-03T15:58:04.831Z,21.33
2023-02-03T16:00:39.992Z,19.45
2023-02-03T16:03:22.137Z,18.17
2023-02-03T16:05:50.678Z,23.45
2023-02-03T16:08:38.872Z,22.73
2023-02-03T16:11:30.169Z,15.25
2023-02-03T16:14:00.937Z,23.17
2023-02-03T16:17:03.815Z,26.63
2023-02-03T16:19:34.574Z,20.63
2023-02-03T16:22:02.586Z,23.40
2023-02-03T16:24:33.378Z,22.48
2023-02-03T16:27:26.221Z,19.98
2023-02-03T16:30:33.765Z,20.17
2023-02-03T16:33:34.699Z,22.17
2023-02-03T16:36:30.294Z,20.17
2023-02-03T16:39:20.884Z,26.00
2023-02-03T16:42:07.557Z,26.38
2023-02-03T16:44:54.413Z,29.50
2023-02-03T16:47:43.503Z,21.65
2023-02-03T16:50:40.504Z,27.00
2023-02-03T16:53:15.092Z,23.98
2023-02-03T16:55:45.878Z,16.23
2023-02-03T16:58:13.750Z,21.38
2023-02-03T17:00:44.596Z,27.48
2023-02-03T17:03:18.858Z,27.27
2023-02-03T17:05:47.892Z,28.15
2023-02-03T17:08:17.677Z,26.70
2023-02-03T17:10:48.016Z,28.77
2023-02-03T17:13:17.051Z,30.60
2023-02-03T17:15:47.720Z,28.40
2023-02-03T17:18:16.658Z,27.77
2023-02-03T17:20:45.692Z,15.13
2023-02-03T17:23:16.356Z,37.03
2023-02-03T17:25:48.727Z,40.33
2023-02-03T17:28:17.387Z,35.83
2023-02-03T17:30:45.884Z,36.60
2023-02-03T17:33:13.682Z,33.75
2023-02-03T17:35:44.024Z,31.15
2023-02-03T17:38:15.064Z,33.40
2023-02-03T17:54:39.366Z,36.22
2023-02-03T17:57:07.591Z,36.20
2023-02-03T17:59:37.782Z,42.13
2023-02-03T18:02:05.987Z,42.33
2023-02-03T18:04:35.030Z,32.42
2023-02-03T18:07:03.144Z,34.45
2023-02-03T18:09:31.099Z,33.78
2023-02-03T18:11:59.249Z,40.22
2023-02-03T18:14:27.263Z,38.47
2023-02-03T18:16:55.518Z,34.80
2023-02-03T18:19:23.306Z,30.33
2023-02-03T18:21:51.413Z,31.90
2023-02-03T18:24:22.368Z,23.20
2023-02-03T18:26:51.829Z,28.02
2023-02-03T18:29:20.255Z,29.10
2023-02-03T18:31:48.698Z,30.65
2023-02-03T18:34:17.657Z,25.88
2023-02-03T18:36:46.314Z,28.05
2023-02-03T18:39:15.265Z,29.77
2023-02-03T18:41:43.749Z,27.92
2023-02-03T18:44:11.531Z,35.70
2023-02-03T18:46:40.010Z,35.33
2023-02-03T18:49:09.533Z,34.13
2023-02-03T18:51:37.639Z,34.15
2023-02-03T18:54:05.698Z,29.20
2023-02-03T18:56:35.499Z,25.40
2023-02-03T18:59:09.783Z,26.30
2023-02-03T19:01:41.514Z,28.10
2023-02-03T19:04:09.271Z,26.92
2023-02-03T19:06:37.777Z,26.50
2023-02-03T19:09:06.004Z,30.73
2023-02-03T19:11:35.076Z,27.15
2023-02-03T19:14:03.058Z,23.15
2023-02-03T19:16:31.472Z,25.75
2023-02-03T19:18:59.219Z,24.10
2023-02-03T19:21:27.243Z,28.60
2023-02-03T19:23:55.038Z,29.63
2023-02-03T19:26:23.033Z,28.70
2023-02-03T19:28:51.732Z,27.52
2023-02-03T19:31:19.695Z,29.77
2023-02-03T19:33:47.400Z,27.60
2023-02-03T19:36:15.368Z,30.75
2023-02-03T19:38:44.291Z,32.00
2023-02-03T19:41:12.420Z,30.15
2023-02-03T19:43:40.430Z,24.45
2023-02-03T19:46:09.041Z,29.15
2023-02-03T19:48:37.008Z,31.40
2023-02-03T19:51:05.412Z,25.88
2023-02-03T19:53:33.095Z,28.25
2023-02-03T19:56:01.023Z,22.70
2023-02-03T19:58:30.711Z,29.30
2023-02-03T20:00:58.818Z,25.63
2023-02-03T20:03:26.822Z,27.83
2023-02-03T20:05:54.854Z,24.10
2023-02-03T20:08:22.958Z,29.02
2023-02-03T20:10:51.998Z,31.55
2023-02-03T20:13:19.666Z,27.60
2023-02-03T20:15:47.824Z,29.30
2023-02-03T20:18:15.772Z,27.52
2023-02-03T20:20:43.823Z,21.92
2023-02-03T20:23:11.649Z,32.97
2023-02-03T20:25:39.689Z,33.33
2023-02-03T20:28:07.588Z,30.63
2023-02-03T20:30:36.717Z,36.05
2023-02-03T20:33:04.858Z,32.17
2023-02-03T20:35:32.851Z,30.05
2023-02-03T20:38:00.550Z,37.30
2023-02-03T20:40:29.829Z,32.67
2023-02-03T20:43:02.580Z,29.70
2023-02-03T20:45:30.964Z,39.93
2023-02-03T20:47:59.124Z,42.50
2023-02-03T20:50:37.477Z,39.80
2023-02-03T20:53:15.111Z,36.47
2023-02-03T20:58:23.459Z,36.10
2023-02-03T21:00:52.154Z,33.97
2023-02-03T21:03:39.417Z,34.40
2023-02-03T21:06:17.482Z,33.53
2023-02-03T21:08:47.095Z,31.83
2023-02-03T21:11:17.625Z,36.67
2023-02-03T21:13:46.524Z,35.67
2023-02-03T21:16:20.643Z,39.03
2023-02-03T21:18:48.625Z,28.88
2023-02-03T21:21:27.443Z,27.83
2023-02-03T21:23:56.019Z,33.90
2023-02-03T21:26:29.251Z,32.65
2023-02-03T21:28:59.119Z,37.15
2023-02-03T21:31:37.282Z,33.80
2023-02-03T21:34:23.008Z,31.38
2023-02-03T21:36:51.016Z,30.35
2023-02-03T21:39:37.474Z,37.90
2023-02-03T21:42:41.013Z,31.73
2023-02-03T21:45:16.003Z,31.83
2023-02-03T21:47:45.820Z,30.38
2023-02-03T21:50:34.602Z,29.85
2023-02-03T21:53:21.718Z,33.08
2023-02-03T21:55:49.901Z,34.10
2023-02-03T21:58:23.929Z,29.73
2023-02-03T22:00:54.226Z,34.20
2023-02-03T22:03:28.399Z,35.58
2023-02-03T22:06:05.157Z,33.13
2023-02-03T22:08:44.448Z,36.85
2023-02-03T22:11:13.512Z,37.33
2023-02-03T22:13:42.742Z,30.25
2023-02-03T22:16:10.899Z,32.47
2023-02-03T22:18:39.773Z,29.83
2023-02-03T22:21:07.909Z,31.30
2023-02-03T22:23:35.870Z,28.80
2023-02-03T22:26:03.717Z,20.40
2023-02-03T22:28:31.671Z,23.80
2023-02-03T22:30:59.385Z,23.85
2023-02-03T22:33:27.372Z,23.77
2023-02-03T22:35:55.037Z,24.90
2023-02-03T22:38:23.111Z,26.42
2023-02-03T22:40:50.870Z,21.58
2023-02-03T22:43:18.779Z,26.05
2023-02-03T22:45:46.510Z,22.25
2023-02-03T22:48:14.474Z,23.13
2023-02-03T22:50:42.394Z,25.38
2023-02-03T22:53:10.560Z,26.88
2023-02-03T22:55:39.035Z,24.10
2023-02-03T22:58:07.778Z,26.27
2023-02-03T23:00:35.868Z,30.55
2023-02-03T23:03:05.088Z,28.08
2023-02-03T23:05:33.115Z,25.45
2023-02-03T23:08:01.307Z,23.83
2023-02-03T23:10:31.092Z,26.77
2023-02-03T23:13:00.921Z,21.08
2023-02-03T23:15:29.236Z,22.58
2023-02-03T23:17:57.346Z,25.25
2023-02-03T23:20:25.088Z,20.52
2023-02-03T23:22:53.267Z,24.13
2023-02-03T23:25:21.123Z,20.45
2023-02-03T23:27:49.063Z,17.67
2023-02-03T23:30:16.838Z,23.50
2023-02-03T23:32:44.777Z,20.85
2023-02-03T23:35:31.588Z,21.20
2023-02-03T23:37:59.587Z,20.38
2023-02-03T23:40:27.364Z,16.70
2023-02-03T23:42:55.321Z,16.75
2023-02-03T23:45:23.047Z,18.80
2023-02-03T23:47:51.533Z,17.55
2023-02-03T23:50:20.115Z,16.52
2023-02-03T23:52:48.805Z,19.10
2023-02-03T23:55:19.258Z,19.90
2023-02-03T23:57:47.390Z,20.25
